createdAt,value
2022-07-28T00:01:19.920Z,15.60
2022-07-28T00:03:49.110Z,15.60
2022-07-28T00:06:18.631Z,15.70
2022-07-28T00:08:46.842Z,15.60
2022-07-28T00:11:15.218Z,15.50
2022-07-28T00:13:43.276Z,15.40
2022-07-28T00:16:11.596Z,15.40
2022-07-28T00:18:39.848Z,15.30
2022-07-28T00:21:08.272Z,15.40
2022-07-28T00:23:39.425Z,15.40
2022-07-28T00:26:09.505Z,15.30
2022-07-28T00:28:38.008Z,15.30
2022-07-28T00:31:12.406Z,15.20
2022-07-28T00:33:42.166Z,15.20
2022-07-28T00:36:11.690Z,15.20
2022-07-28T00:38:44.348Z,15.20
2022-07-28T00:41:14.274Z,15.20
2022-07-28T00:43:44.982Z,15.10
2022-07-28T00:46:14.429Z,15.10
2022-07-28T00:48:45.963Z,15.10
2022-07-28T00:51:16.333Z,15.10
2022-07-28T00:53:47.127Z,15.10
2022-07-28T00:56:15.856Z,15.00
2022-07-28T00:58:44.814Z,14.90
2022-07-28T01:01:16.003Z,14.90
2022-07-28T01:03:47.643Z,14.80
2022-07-28T01:06:36.764Z,14.80
2022-07-28T01:09:19.798Z,14.70
2022-07-28T01:12:02.536Z,14.70
2022-07-28T01:14:39.422Z,14.60
2022-07-28T01:17:27.814Z,14.60
2022-07-28T01:20:07.600Z,14.70
2022-07-28T01:22:42.172Z,14.60
2022-07-28T01:25:25.088Z,14.50
2022-07-28T01:28:13.655Z,14.50
2022-07-28T01:30:47.387Z,14.50
2022-07-28T01:33:21.287Z,14.60
2022-07-28T01:36:09.684Z,14.60
2022-07-28T01:38:40.412Z,14.60
2022-07-28T01:41:15.779Z,14.50
2022-07-28T01:43:58.017Z,14.50
2022-07-28T01:46:28.086Z,14.50
2022-07-28T01:48:59.103Z,14.40
2022-07-28T01:51:31.432Z,14.30
2022-07-28T01:54:02.893Z,14.20
2022-07-28T01:56:34.369Z,14.10
2022-07-28T01:59:09.883Z,14.10
2022-07-28T02:01:45.389Z,14.10
2022-07-28T02:04:19.685Z,14.00
2022-07-28T02:06:50.732Z,14.20
2022-07-28T02:09:22.272Z,14.20
2022-07-28T02:11:55.105Z,14.30
2022-07-28T02:14:25.886Z,14.20
2022-07-28T02:16:59.293Z,14.10
2022-07-28T02:19:30.247Z,14.00
2022-07-28T02:21:58.690Z,14.00
2022-07-28T02:24:30.986Z,14.00
2022-07-28T02:27:04.250Z,14.00
2022-07-28T02:29:51.682Z,13.90
2022-07-28T02:32:33.027Z,13.80
2022-07-28T02:35:09.560Z,13.80
2022-07-28T02:37:41.994Z,13.80
2022-07-28T02:40:15.973Z,13.80
2022-07-28T02:42:49.752Z,13.80
2022-07-28T02:45:26.316Z,13.80
2022-07-28T02:48:02.792Z,13.80
2022-07-28T02:50:31.197Z,13.70
2022-07-28T02:53:15.518Z,13.70
2022-07-28T02:55:47.370Z,13.70
2022-07-28T02:58:21.990Z,13.70
2022-07-28T03:00:52.681Z,13.70
2022-07-28T03:03:24.808Z,13.70
2022-07-28T03:05:53.805Z,13.70
2022-07-28T03:08:22.022Z,13.70
2022-07-28T03:10:50.263Z,13.60
2022-07-28T03:13:18.379Z,13.60
2022-07-28T03:15:46.485Z,13.50
2022-07-28T03:18:14.564Z,13.50
2022-07-28T03:20:43.983Z,13.50
2022-07-28T03:23:12.271Z,13.50
2022-07-28T03:25:47.249Z,13.50
2022-07-28T03:28:21.041Z,13.60
2022-07-28T03:31:02.896Z,13.70
2022-07-28T03:33:31.206Z,13.70
2022-07-28T03:36:10.295Z,13.70
2022-07-28T03:38:44.747Z,13.60
2022-07-28T03:41:16.033Z,13.60
2022-07-28T03:43:45.847Z,13.80
2022-07-28T03:46:14.549Z,13.90
2022-07-28T03:48:42.857Z,13.80
2022-07-28T03:51:12.397Z,13.90
2022-07-28T03:53:42.634Z,13.80
2022-07-28T03:56:10.757Z,13.80
2022-07-28T03:58:39.054Z,13.70
2022-07-28T04:01:07.226Z,13.80
2022-07-28T04:03:43.741Z,13.70
2022-07-28T04:06:15.089Z,13.70
2022-07-28T04:08:43.553Z,13.70
2022-07-28T04:11:11.748Z,13.80
2022-07-28T04:13:39.855Z,13.80
2022-07-28T04:16:08.411Z,14.10
2022-07-28T04:18:36.765Z,14.10
2022-07-28T04:21:05.914Z,14.20
2022-07-28T04:23:35.480Z,14.40
2022-07-28T04:26:03.589Z,14.50
2022-07-28T04:28:31.701Z,14.70
2022-07-28T04:31:00.017Z,14.70
2022-07-28T04:33:28.187Z,14.80
2022-07-28T04:35:56.238Z,14.80
2022-07-28T04:38:24.355Z,14.80
2022-07-28T04:40:53.790Z,14.90
2022-07-28T04:43:22.907Z,15.00
2022-07-28T04:45:54.232Z,15.00
2022-07-28T04:48:23.940Z,15.10
2022-07-28T04:50:53.642Z,15.20
2022-07-28T04:53:22.869Z,15.10
2022-07-28T04:55:53.611Z,15.20
2022-07-28T04:58:24.996Z,15.30
2022-07-28T05:00:53.448Z,15.30
2022-07-28T05:03:22.284Z,15.50
2022-07-28T05:05:54.405Z,15.80
2022-07-28T05:08:25.765Z,16.40
2022-07-28T05:10:56.544Z,17.20
2022-07-28T05:13:31.821Z,17.90
2022-07-28T05:16:02.433Z,18.60
2022-07-28T05:18:30.773Z,18.80
2022-07-28T05:20:59.057Z,18.90
2022-07-28T05:23:27.528Z,18.80
2022-07-28T05:25:55.631Z,18.90
2022-07-28T05:28:25.386Z,19.20
2022-07-28T05:30:54.139Z,19.00
2022-07-28T05:33:22.548Z,18.90
2022-07-28T05:35:57.445Z,18.50
2022-07-28T05:38:26.047Z,18.40
2022-07-28T05:40:54.507Z,18.20
2022-07-28T05:43:22.797Z,18.10
2022-07-28T05:45:52.680Z,18.00
2022-07-28T05:48:22.542Z,17.70
2022-07-28T05:50:51.940Z,17.70
2022-07-28T05:53:21.176Z,17.80
2022-07-28T05:55:59.784Z,17.70
2022-07-28T05:58:29.118Z,17.60
2022-07-28T06:01:01.993Z,17.60
2022-07-28T06:03:33.586Z,17.60
2022-07-28T06:06:14.574Z,17.70
2022-07-28T06:08:43.595Z,17.70
2022-07-28T06:11:11.964Z,17.70
2022-07-28T06:13:49.924Z,17.70
2022-07-28T06:16:20.781Z,17.70
2022-07-28T06:18:49.323Z,17.60
2022-07-28T06:21:17.474Z,17.60
2022-07-28T06:23:46.148Z,17.70
2022-07-28T06:26:14.329Z,17.70
2022-07-28T06:28:42.443Z,17.70
2022-07-28T06:31:10.627Z,17.60
2022-07-28T06:33:40.180Z,17.50
2022-07-28T06:36:08.373Z,17.40
2022-07-28T06:38:37.056Z,17.50
2022-07-28T06:41:05.286Z,17.50
2022-07-28T06:43:38.333Z,17.60
2022-07-28T06:46:07.395Z,17.60
2022-07-28T06:48:37.608Z,17.50
2022-07-28T06:51:07.483Z,17.40
2022-07-28T06:53:36.033Z,17.70
2022-07-28T06:56:06.244Z,17.80
2022-07-28T06:58:34.401Z,17.90
2022-07-28T07:01:07.323Z,17.90
2022-07-28T07:03:36.046Z,18.00
2022-07-28T07:06:04.410Z,18.20
2022-07-28T07:08:34.210Z,18.30
2022-07-28T07:11:02.489Z,18.30
2022-07-28T07:13:30.741Z,18.40
2022-07-28T07:15:58.934Z,18.40
2022-07-28T07:18:27.468Z,18.40
2022-07-28T07:20:58.203Z,18.50
2022-07-28T07:23:26.373Z,18.50
2022-07-28T07:25:56.235Z,18.40
2022-07-28T07:28:24.405Z,18.40
2022-07-28T07:30:52.631Z,18.40
2022-07-28T07:33:20.826Z,18.40
2022-07-28T07:35:48.956Z,18.50
2022-07-28T07:38:17.057Z,18.70
2022-07-28T07:40:45.373Z,18.80
2022-07-28T07:43:14.808Z,18.70
2022-07-28T07:45:42.953Z,18.80
2022-07-28T07:48:11.107Z,18.90
2022-07-28T07:50:39.381Z,19.00
2022-07-28T07:53:07.668Z,19.00
2022-07-28T07:55:37.782Z,19.00
2022-07-28T07:58:06.677Z,19.00
2022-07-28T08:00:36.134Z,19.10
2022-07-28T08:03:04.467Z,19.10
2022-07-28T08:05:39.424Z,19.10
2022-07-28T08:08:08.270Z,19.20
2022-07-28T08:10:37.774Z,19.30
2022-07-28T08:13:07.453Z,19.20
2022-07-28T08:15:37.096Z,19.20
2022-07-28T08:18:05.745Z,19.30
2022-07-28T08:20:33.884Z,19.40
2022-07-28T08:23:02.329Z,19.50
2022-07-28T08:25:30.487Z,19.60
2022-07-28T08:27:58.578Z,19.70
2022-07-28T08:30:32.012Z,19.70
2022-07-28T08:33:02.858Z,19.80
2022-07-28T08:35:34.531Z,19.90
2022-07-28T08:38:04.544Z,20.00
2022-07-28T08:40:33.514Z,19.90
2022-07-28T08:43:16.222Z,19.90
2022-07-28T08:45:48.903Z,19.90
2022-07-28T08:48:22.593Z,20.00
2022-07-28T08:50:52.420Z,20.10
2022-07-28T08:53:21.850Z,20.30
2022-07-28T08:55:50.238Z,20.40
2022-07-28T08:58:18.983Z,20.50
2022-07-28T09:00:48.450Z,20.60
2022-07-28T09:03:18.270Z,20.80
2022-07-28T09:05:47.465Z,20.80
2022-07-28T09:08:18.695Z,20.80
2022-07-28T09:10:47.099Z,20.80
2022-07-28T09:13:16.565Z,20.90
2022-07-28T09:15:46.546Z,21.00
2022-07-28T09:18:15.658Z,21.00
2022-07-28T09:20:46.118Z,21.00
2022-07-28T09:23:42.837Z,21.10
2022-07-28T09:26:12.181Z,21.20
2022-07-28T09:28:55.288Z,21.40
2022-07-28T09:31:26.541Z,21.50
2022-07-28T09:34:03.972Z,21.60
2022-07-28T09:36:41.421Z,21.70
2022-07-28T09:39:10.493Z,21.80
2022-07-28T09:41:49.245Z,21.80
2022-07-28T09:44:20.487Z,21.80
2022-07-28T09:46:49.260Z,21.80
2022-07-28T09:49:18.093Z,22.00
2022-07-28T09:52:01.698Z,21.90
2022-07-28T09:54:29.853Z,21.90
2022-07-28T09:56:58.153Z,21.90
2022-07-28T09:59:26.578Z,21.90
2022-07-28T10:02:00.982Z,21.90
2022-07-28T10:04:36.215Z,21.80
2022-07-28T10:07:09.988Z,21.90
2022-07-28T10:09:39.554Z,22.00
2022-07-28T10:12:23.300Z,22.00
2022-07-28T10:14:53.479Z,21.90
2022-07-28T10:17:29.024Z,21.90
2022-07-28T10:20:01.360Z,21.90
2022-07-28T10:22:33.988Z,21.90
2022-07-28T10:25:06.701Z,22.10
2022-07-28T10:27:35.105Z,22.10
2022-07-28T10:30:06.286Z,22.20
2022-07-28T10:32:41.607Z,22.30
2022-07-28T10:35:12.791Z,22.40
2022-07-28T10:37:51.745Z,22.30
2022-07-28T10:40:27.574Z,22.20
2022-07-28T10:42:57.488Z,22.30
2022-07-28T10:45:48.159Z,22.40
2022-07-28T10:48:15.752Z,22.40
2022-07-28T10:50:45.492Z,22.60
2022-07-28T10:53:28.738Z,22.70
2022-07-28T10:56:06.123Z,22.70
2022-07-28T10:58:49.402Z,22.70
2022-07-28T11:01:51.624Z,22.70
2022-07-28T11:04:58.998Z,22.60
2022-07-28T11:07:40.543Z,22.80
2022-07-28T11:10:30.924Z,22.90
2022-07-28T11:13:00.608Z,23.00
2022-07-28T11:15:35.756Z,23.00
2022-07-28T11:18:10.247Z,22.90
2022-07-28T11:21:07.824Z,22.90
2022-07-28T11:23:47.848Z,23.00
2022-07-28T11:26:37.652Z,23.10
2022-07-28T11:29:22.815Z,23.20
2022-07-28T11:32:03.973Z,23.40
2022-07-28T11:35:19.975Z,23.40
2022-07-28T11:38:14.429Z,23.40
2022-07-28T11:40:45.207Z,23.30
2022-07-28T11:43:39.394Z,23.30
2022-07-28T11:46:25.541Z,23.20
2022-07-28T11:49:21.704Z,23.20
2022-07-28T11:52:22.908Z,23.20
2022-07-28T11:54:57.016Z,23.30
2022-07-28T11:57:27.739Z,23.30
2022-07-28T12:00:02.153Z,23.20
2022-07-28T12:02:33.305Z,23.20
2022-07-28T12:05:08.127Z,23.20
2022-07-28T12:07:40.605Z,23.30
2022-07-28T12:10:53.799Z,23.40
2022-07-28T12:13:28.894Z,23.40
2022-07-28T12:15:58.482Z,23.60
2022-07-28T12:18:26.674Z,23.60
2022-07-28T12:20:55.512Z,23.60
2022-07-28T12:23:45.533Z,23.50
2022-07-28T12:26:31.378Z,23.60
2022-07-28T12:29:00.112Z,23.60
2022-07-28T12:31:33.206Z,23.70
2022-07-28T12:34:01.756Z,23.50
2022-07-28T12:36:30.645Z,23.60
2022-07-28T12:38:59.703Z,23.70
2022-07-28T12:41:33.695Z,23.70
2022-07-28T12:44:05.851Z,23.80
2022-07-28T12:46:35.932Z,23.80
2022-07-28T12:49:04.132Z,23.80
2022-07-28T12:51:34.747Z,23.80
2022-07-28T12:54:03.923Z,23.70
2022-07-28T12:56:32.939Z,23.70
2022-07-28T12:59:09.495Z,23.80
2022-07-28T13:01:51.927Z,23.80
2022-07-28T13:04:46.407Z,23.80
2022-07-28T13:07:24.462Z,23.80
2022-07-28T13:10:05.150Z,23.90
2022-07-28T13:12:33.862Z,24.00
2022-07-28T13:15:06.840Z,23.90
2022-07-28T13:20:34.370Z,23.90
2022-07-28T13:23:02.298Z,24.00
2022-07-28T13:25:30.286Z,24.00
2022-07-28T13:28:00.177Z,24.10
2022-07-28T13:30:28.130Z,24.20
2022-07-28T13:32:58.350Z,24.40
2022-07-28T13:35:26.421Z,24.30
2022-07-28T13:37:55.754Z,24.30
2022-07-28T13:40:23.999Z,24.30
2022-07-28T13:42:53.139Z,24.40
2022-07-28T13:45:25.179Z,24.40
2022-07-28T13:47:58.067Z,24.40
2022-07-28T13:50:26.978Z,24.60
2022-07-28T13:52:56.474Z,24.60
2022-07-28T13:55:24.655Z,24.60
2022-07-28T13:57:55.222Z,24.60
2022-07-28T14:00:24.947Z,24.70
2022-07-28T14:02:53.187Z,24.70
2022-07-28T14:05:21.534Z,24.60
2022-07-28T14:07:49.692Z,24.50
2022-07-28T14:10:19.445Z,24.40
2022-07-28T14:12:47.553Z,24.40
2022-07-28T14:15:16.209Z,24.40
2022-07-28T14:17:45.891Z,24.50
2022-07-28T14:20:15.626Z,24.50
2022-07-28T14:22:46.615Z,24.60
2022-07-28T14:25:20.601Z,24.60
2022-07-28T14:27:51.877Z,24.60
2022-07-28T14:30:20.889Z,24.60
2022-07-28T14:32:49.627Z,24.50
2022-07-28T14:35:17.834Z,24.60
2022-07-28T14:38:23.543Z,24.70
2022-07-28T14:40:36.856Z,24.70
2022-07-28T14:43:10.175Z,24.80
2022-07-28T14:46:09.283Z,24.90
2022-07-28T14:48:27.103Z,24.90
2022-07-28T14:50:56.999Z,25.10
2022-07-28T14:53:28.012Z,25.10
2022-07-28T14:55:56.778Z,25.10
2022-07-28T14:58:26.258Z,25.10
2022-07-28T15:00:54.910Z,25.00
2022-07-28T15:03:23.088Z,25.00
2022-07-28T15:05:51.279Z,25.10
2022-07-28T15:08:19.344Z,25.10
2022-07-28T15:10:49.120Z,25.10
2022-07-28T15:13:17.282Z,25.20
2022-07-28T15:15:47.006Z,25.20
2022-07-28T15:18:15.108Z,25.30
2022-07-28T15:20:43.447Z,25.20
2022-07-28T15:23:11.631Z,25.20
2022-07-28T15:25:39.816Z,25.20
2022-07-28T15:28:07.953Z,25.10
2022-07-28T15:30:36.032Z,25.00
2022-07-28T15:33:11.948Z,25.10
2022-07-28T15:35:58.989Z,24.90
2022-07-28T15:38:29.450Z,24.90
2022-07-28T15:40:59.545Z,25.00
2022-07-28T15:43:27.800Z,25.20
2022-07-28T15:45:57.502Z,25.30
2022-07-28T15:48:27.013Z,25.60
2022-07-28T15:50:55.405Z,25.60
2022-07-28T15:53:23.728Z,25.40
2022-07-28T15:55:52.164Z,25.40
2022-07-28T15:58:21.550Z,25.30
2022-07-28T16:00:50.017Z,25.20
2022-07-28T16:03:18.259Z,25.20
2022-07-28T16:05:49.776Z,25.10
2022-07-28T16:08:22.869Z,25.10
2022-07-28T16:10:53.115Z,25.00
2022-07-28T16:13:36.035Z,25.00
2022-07-28T16:16:08.257Z,25.00
2022-07-28T16:18:37.430Z,25.00
2022-07-28T16:21:08.233Z,24.90
2022-07-28T16:23:37.123Z,25.00
2022-07-28T16:26:07.758Z,24.70
2022-07-28T16:28:36.410Z,24.60
2022-07-28T16:31:04.626Z,24.50
2022-07-28T16:33:33.038Z,24.40
2022-07-28T16:36:02.261Z,24.30
2022-07-28T16:38:31.718Z,24.30
2022-07-28T16:40:59.761Z,24.20
2022-07-28T16:43:27.731Z,24.20
2022-07-28T16:45:55.844Z,24.20
2022-07-28T16:48:24.131Z,24.20
2022-07-28T16:50:52.224Z,24.10
2022-07-28T16:53:20.257Z,24.00
2022-07-28T16:55:50.227Z,24.00
2022-07-28T16:58:19.914Z,24.00
2022-07-28T17:00:47.973Z,24.00
2022-07-28T17:03:16.900Z,23.90
2022-07-28T17:05:45.102Z,23.80
2022-07-28T17:08:13.388Z,23.70
2022-07-28T17:10:41.562Z,23.70
2022-07-28T17:13:12.020Z,23.80
2022-07-28T17:15:41.481Z,23.80
2022-07-28T17:18:09.638Z,23.70
2022-07-28T17:20:41.879Z,23.70
2022-07-28T17:23:10.104Z,23.70
2022-07-28T17:28:28.458Z,23.70
2022-07-28T17:30:56.579Z,23.70
2022-07-28T17:33:24.802Z,23.70
2022-07-28T17:35:54.995Z,23.70
2022-07-28T17:38:29.522Z,23.70
2022-07-28T17:41:03.696Z,23.70
2022-07-28T17:43:33.195Z,23.60
2022-07-28T17:46:02.927Z,23.50
2022-07-28T17:48:38.263Z,23.40
2022-07-28T17:51:06.556Z,23.30
2022-07-28T17:53:39.337Z,23.20
2022-07-28T17:56:08.579Z,23.10
2022-07-28T17:58:39.481Z,23.00
2022-07-28T18:01:12.074Z,22.80
2022-07-28T18:03:56.841Z,22.80
2022-07-28T18:06:34.320Z,22.70
2022-07-28T18:09:06.624Z,22.70
2022-07-28T18:11:57.798Z,22.60
2022-07-28T18:14:28.604Z,22.60
2022-07-28T18:16:57.497Z,22.40
2022-07-28T18:19:26.008Z,22.40
2022-07-28T18:21:54.163Z,22.40
2022-07-28T18:24:23.070Z,22.30
2022-07-28T18:26:52.510Z,22.30
2022-07-28T18:29:21.851Z,22.20
2022-07-28T18:31:52.638Z,22.00
2022-07-28T18:34:24.994Z,21.90
2022-07-28T18:36:54.137Z,21.90
2022-07-28T18:39:22.643Z,21.80
2022-07-28T18:41:50.695Z,21.80
2022-07-28T18:44:19.984Z,21.60
2022-07-28T18:46:49.552Z,21.50
2022-07-28T18:49:19.970Z,21.50
2022-07-28T18:51:49.268Z,21.50
2022-07-28T18:54:24.762Z,21.40
2022-07-28T18:56:56.390Z,21.40
2022-07-28T18:59:24.515Z,21.40
2022-07-28T19:01:52.732Z,21.30
2022-07-28T19:04:22.143Z,21.20
2022-07-28T19:06:50.832Z,21.10
2022-07-28T19:09:19.057Z,21.10
2022-07-28T19:11:47.064Z,21.00
2022-07-28T19:14:15.634Z,20.90
2022-07-28T19:16:44.438Z,20.80
2022-07-28T19:19:12.891Z,20.80
2022-07-28T19:21:43.262Z,20.70
2022-07-28T19:24:12.581Z,20.60
2022-07-28T19:26:41.356Z,20.60
2022-07-28T19:29:09.652Z,20.60
2022-07-28T19:31:37.776Z,20.50
2022-07-28T19:34:05.781Z,20.60
2022-07-28T19:36:33.843Z,20.50
2022-07-28T19:39:03.223Z,20.50
2022-07-28T19:41:31.575Z,20.50
2022-07-28T19:43:59.596Z,20.40
2022-07-28T19:46:27.602Z,20.40
2022-07-28T19:48:56.197Z,20.30
2022-07-28T19:51:24.918Z,20.30
2022-07-28T19:53:52.970Z,20.30
2022-07-28T19:56:27.586Z,20.40
2022-07-28T19:58:58.849Z,20.30
2022-07-28T20:01:27.202Z,20.20
2022-07-28T20:04:03.731Z,20.20
2022-07-28T20:06:33.294Z,20.20
2022-07-28T20:09:01.859Z,20.10
2022-07-28T20:11:32.795Z,20.00
2022-07-28T20:14:02.018Z,19.90
2022-07-28T20:16:30.405Z,19.80
2022-07-28T20:18:58.608Z,19.80
2022-07-28T20:21:27.074Z,19.70
2022-07-28T20:23:56.964Z,19.60
2022-07-28T20:26:26.224Z,19.60
2022-07-28T20:28:58.252Z,19.50
2022-07-28T20:31:26.412Z,19.50
2022-07-28T20:33:54.548Z,19.40
2022-07-28T20:36:26.370Z,19.40
2022-07-28T20:38:57.589Z,19.30
2022-07-28T20:41:25.677Z,19.30
2022-07-28T20:44:29.752Z,19.30
2022-07-28T20:46:43.486Z,19.30
2022-07-28T20:49:11.632Z,19.20
2022-07-28T20:51:39.776Z,19.20
2022-07-28T20:54:18.964Z,19.20
2022-07-28T20:56:47.079Z,19.20
2022-07-28T20:59:16.533Z,19.20
2022-07-28T21:01:44.721Z,19.20
2022-07-28T21:04:13.273Z,19.10
2022-07-28T21:06:43.676Z,19.10
2022-07-28T21:09:19.942Z,19.00
2022-07-28T21:11:48.288Z,19.10
2022-07-28T21:14:18.026Z,19.00
2022-07-28T21:16:46.502Z,19.00
2022-07-28T21:19:14.555Z,18.80
2022-07-28T21:21:42.514Z,18.70
2022-07-28T21:24:10.698Z,18.70
2022-07-28T21:26:38.768Z,18.60
2022-07-28T21:29:12.422Z,18.60
2022-07-28T21:32:03.721Z,18.60
2022-07-28T21:34:34.345Z,18.70
2022-07-28T21:37:03.023Z,18.70
2022-07-28T21:39:31.125Z,18.60
2022-07-28T21:41:59.687Z,18.60
2022-07-28T21:44:27.995Z,18.50
2022-07-28T21:46:57.389Z,18.50
2022-07-28T21:49:28.533Z,18.50
2022-07-28T21:51:56.622Z,18.50
2022-07-28T21:54:24.802Z,18.40
2022-07-28T21:56:52.869Z,18.40
2022-07-28T21:59:20.926Z,18.40
2022-07-28T22:01:48.989Z,18.40
2022-07-28T22:04:19.491Z,18.30
2022-07-28T22:06:47.865Z,18.30
2022-07-28T22:09:16.010Z,18.30
2022-07-28T22:11:44.163Z,18.30
2022-07-28T22:14:12.366Z,18.40
2022-07-28T22:16:40.731Z,18.40
2022-07-28T22:19:11.738Z,18.30
2022-07-28T22:21:41.171Z,18.40
2022-07-28T22:24:09.867Z,18.30
2022-07-28T22:26:38.077Z,18.20
2022-07-28T22:29:06.083Z,18.20
2022-07-28T22:31:34.226Z,18.20
2022-07-28T22:34:02.335Z,18.10
2022-07-28T22:36:30.419Z,18.10
2022-07-28T22:38:59.862Z,18.10
2022-07-28T22:41:28.121Z,18.00
2022-07-28T22:43:56.154Z,18.00
2022-07-28T22:46:24.449Z,17.90
2022-07-28T22:48:52.641Z,18.00
2022-07-28T22:51:20.868Z,18.10
2022-07-28T22:53:49.226Z,17.90
2022-07-28T22:56:18.866Z,17.90
2022-07-28T22:58:47.047Z,17.80
2022-07-28T23:01:15.168Z,17.80
2022-07-28T23:03:43.440Z,17.70
2022-07-28T23:06:13.784Z,17.70
2022-07-28T23:08:41.847Z,17.60
2022-07-28T23:11:09.905Z,17.60
2022-07-28T23:13:39.350Z,17.60
2022-07-28T23:16:09.459Z,17.60
2022-07-28T23:18:40.217Z,17.50
2022-07-28T23:21:09.229Z,17.50
2022-07-28T23:23:37.619Z,17.50
2022-07-28T23:26:06.596Z,17.50
2022-07-28T23:28:36.180Z,17.50
2022-07-28T23:31:06.193Z,17.50
2022-07-28T23:33:55.236Z,17.50
2022-07-28T23:36:26.702Z,17.50
2022-07-28T23:38:56.970Z,17.50
2022-07-28T23:41:26.342Z,17.60
2022-07-28T23:43:54.732Z,17.50
2022-07-28T23:46:24.380Z,17.50
2022-07-28T23:48:52.663Z,17.50
2022-07-28T23:51:22.556Z,17.60
2022-07-28T23:54:06.865Z,17.60
2022-07-28T23:56:34.979Z,17.60
2022-07-28T23:59:03.092Z,17.60
